createdAt,value
2019-03-26T00:00:27.809Z,10.07
2019-03-26T00:02:56.800Z,9.93
2019-03-26T00:05:25.120Z,9.47
2019-03-26T00:07:53.404Z,9.90
2019-03-26T00:10:21.731Z,10.57
2019-03-26T00:12:49.957Z,15.03
2019-03-26T00:15:18.285Z,12.63
2019-03-26T00:17:46.576Z,12.33
2019-03-26T00:20:14.868Z,12.30
2019-03-26T00:22:43.191Z,10.53
2019-03-26T00:25:11.475Z,9.67
2019-03-26T00:27:39.802Z,11.93
2019-03-26T00:30:08.193Z,12.80
2019-03-26T00:32:36.448Z,13.63
2019-03-26T00:35:04.880Z,13.50
2019-03-26T00:37:33.091Z,10.20
2019-03-26T00:40:01.316Z,13.03
2019-03-26T00:42:29.572Z,13.97
2019-03-26T00:44:57.788Z,17.30
2019-03-26T00:47:26.018Z,10.20
2019-03-26T00:49:54.268Z,14.10
2019-03-26T00:52:22.488Z,13.07
2019-03-26T00:54:50.811Z,12.63
2019-03-26T00:57:19.111Z,11.20
2019-03-26T00:59:47.365Z,13.90
2019-03-26T01:02:15.588Z,12.03
2019-03-26T01:04:43.927Z,13.93
2019-03-26T01:07:12.140Z,14.90
2019-03-26T01:09:40.388Z,9.67
2019-03-26T01:12:08.685Z,12.17
2019-03-26T01:14:36.978Z,10.93
2019-03-26T01:17:05.301Z,14.43
2019-03-26T01:19:33.531Z,14.93
2019-03-26T01:22:01.773Z,13.43
2019-03-26T01:24:30.000Z,16.73
2019-03-26T01:26:58.321Z,19.73
2019-03-26T01:29:26.624Z,15.20
2019-03-26T01:31:54.936Z,12.70
2019-03-26T01:34:23.320Z,13.60
2019-03-26T01:36:51.572Z,12.47
2019-03-26T01:39:19.799Z,15.13
2019-03-26T01:41:48.128Z,16.00
2019-03-26T01:44:16.352Z,13.50
2019-03-26T01:46:44.595Z,11.60
2019-03-26T01:49:12.830Z,11.90
2019-03-26T01:51:41.047Z,13.00
2019-03-26T01:54:09.296Z,13.37
2019-03-26T01:56:37.583Z,12.20
2019-03-26T01:59:05.907Z,11.37
2019-03-26T02:01:34.195Z,12.60
2019-03-26T02:04:02.530Z,14.00
2019-03-26T02:06:30.745Z,13.53
2019-03-26T02:08:59.073Z,13.50
2019-03-26T02:11:27.293Z,12.33
2019-03-26T02:13:55.541Z,14.57
2019-03-26T02:16:23.760Z,12.27
2019-03-26T02:18:52.020Z,12.93
2019-03-26T02:21:20.409Z,12.70
2019-03-26T02:23:48.661Z,14.63
2019-03-26T02:26:16.878Z,14.17
2019-03-26T02:28:45.133Z,16.47
2019-03-26T02:31:13.438Z,15.93
2019-03-26T02:33:41.640Z,15.47
2019-03-26T02:36:09.892Z,15.70
2019-03-26T02:38:38.116Z,18.47
2019-03-26T02:41:06.369Z,14.97
2019-03-26T02:43:34.593Z,16.70
2019-03-26T02:46:02.849Z,18.73
2019-03-26T02:48:31.144Z,15.80
2019-03-26T02:50:59.402Z,15.70
2019-03-26T02:53:27.626Z,15.80
2019-03-26T02:55:55.955Z,13.37
2019-03-26T02:58:24.246Z,19.53
2019-03-26T03:00:52.497Z,19.27
2019-03-26T03:03:20.713Z,15.43
2019-03-26T03:05:48.970Z,15.07
2019-03-26T03:08:17.201Z,18.90
2019-03-26T03:10:45.453Z,19.67
2019-03-26T03:13:13.678Z,16.63
2019-03-26T03:15:41.901Z,14.77
2019-03-26T03:18:10.226Z,20.50
2019-03-26T03:20:38.451Z,18.70
2019-03-26T03:23:06.769Z,18.40
2019-03-26T03:25:35.056Z,19.57
2019-03-26T03:28:03.320Z,18.20
2019-03-26T03:30:31.546Z,21.33
2019-03-26T03:32:59.794Z,22.50
2019-03-26T03:35:28.013Z,17.27
2019-03-26T03:37:56.273Z,18.50
2019-03-26T03:40:24.494Z,17.03
2019-03-26T03:42:52.854Z,17.10
2019-03-26T03:45:27.843Z,19.73
2019-03-26T03:47:56.562Z,20.83
2019-03-26T03:50:26.318Z,24.50
2019-03-26T03:52:56.084Z,19.83
2019-03-26T03:55:24.705Z,17.90
2019-03-26T03:57:54.469Z,23.60
2019-03-26T04:00:35.619Z,20.50
2019-03-26T04:03:04.622Z,20.87
2019-03-26T04:05:33.060Z,22.37
2019-03-26T04:08:01.358Z,22.77
2019-03-26T04:10:29.622Z,22.07
2019-03-26T04:12:57.935Z,21.80
2019-03-26T04:15:26.269Z,22.50
2019-03-26T04:18:01.023Z,22.70
2019-03-26T04:20:36.650Z,25.80
2019-03-26T04:23:04.947Z,22.60
2019-03-26T04:25:33.256Z,20.77
2019-03-26T04:28:01.477Z,23.67
2019-03-26T04:30:30.618Z,28.00
2019-03-26T04:32:58.899Z,22.97
2019-03-26T04:35:27.222Z,23.10
2019-03-26T04:37:55.453Z,25.50
2019-03-26T04:40:23.704Z,23.60
2019-03-26T04:42:51.931Z,23.53
2019-03-26T04:45:23.295Z,21.67
2019-03-26T04:47:51.508Z,25.03
2019-03-26T04:50:19.765Z,24.00
2019-03-26T04:52:48.048Z,22.63
2019-03-26T04:55:16.304Z,18.10
2019-03-26T04:57:44.528Z,17.90
2019-03-26T05:00:12.920Z,18.53
2019-03-26T05:02:52.732Z,24.97
2019-03-26T05:05:15.932Z,19.87
2019-03-26T05:07:44.252Z,20.73
2019-03-26T05:10:12.620Z,21.63
2019-03-26T05:12:40.804Z,18.43
2019-03-26T05:15:09.100Z,19.83
2019-03-26T05:17:37.355Z,23.03
2019-03-26T05:20:06.447Z,21.37
2019-03-26T05:22:35.149Z,18.70
2019-03-26T05:25:04.469Z,21.57
2019-03-26T05:27:44.879Z,19.50
2019-03-26T05:30:02.663Z,18.93
2019-03-26T05:32:30.884Z,17.03
2019-03-26T05:34:59.143Z,20.10
2019-03-26T05:37:27.369Z,19.30
2019-03-26T05:39:55.624Z,19.30
2019-03-26T05:42:23.843Z,18.73
2019-03-26T05:44:52.097Z,18.43
2019-03-26T05:47:20.385Z,14.70
2019-03-26T05:49:48.636Z,17.23
2019-03-26T05:52:16.852Z,15.97
2019-03-26T05:54:45.139Z,18.57
2019-03-26T05:57:13.391Z,15.00
2019-03-26T05:59:41.612Z,16.60
2019-03-26T06:02:15.258Z,16.63
2019-03-26T06:04:39.799Z,15.07
2019-03-26T06:07:08.048Z,16.70
2019-03-26T06:09:36.277Z,17.03
2019-03-26T06:12:04.528Z,14.53
2019-03-26T06:14:32.812Z,13.83
2019-03-26T06:17:01.064Z,15.57
2019-03-26T06:19:29.284Z,14.87
2019-03-26T06:21:57.612Z,13.57
2019-03-26T06:24:25.843Z,15.43
2019-03-26T06:26:54.109Z,14.53
2019-03-26T06:29:22.336Z,11.53
2019-03-26T06:31:50.600Z,14.20
2019-03-26T06:34:18.906Z,13.40
2019-03-26T06:36:47.124Z,16.33
2019-03-26T06:39:15.389Z,12.23
2019-03-26T06:41:43.612Z,13.40
2019-03-26T06:44:11.945Z,13.63
2019-03-26T06:46:40.168Z,15.10
2019-03-26T06:49:08.423Z,12.67
2019-03-26T06:51:36.643Z,13.87
2019-03-26T06:54:04.960Z,12.37
2019-03-26T06:56:33.191Z,15.63
2019-03-26T06:59:01.441Z,16.60
2019-03-26T07:01:29.837Z,11.43
2019-03-26T07:03:58.155Z,12.53
2019-03-26T07:06:26.376Z,11.73
2019-03-26T07:08:54.703Z,15.63
2019-03-26T07:11:22.925Z,15.13
2019-03-26T07:13:51.225Z,10.87
2019-03-26T07:16:19.472Z,10.73
2019-03-26T07:18:47.696Z,12.23
2019-03-26T07:21:16.024Z,11.33
2019-03-26T07:23:44.244Z,11.37
2019-03-26T07:26:12.560Z,12.53
2019-03-26T07:28:40.852Z,14.97
2019-03-26T07:31:09.072Z,12.03
2019-03-26T07:33:37.323Z,13.30
2019-03-26T07:36:05.552Z,12.47
2019-03-26T07:38:33.804Z,13.60
2019-03-26T07:41:02.032Z,10.53
2019-03-26T07:43:32.938Z,12.47
2019-03-26T07:46:01.240Z,13.50
2019-03-26T07:48:31.397Z,10.90
2019-03-26T07:50:59.361Z,10.13
2019-03-26T07:53:27.614Z,12.07
2019-03-26T07:55:55.905Z,11.87
2019-03-26T07:58:24.164Z,13.17
2019-03-26T08:00:52.384Z,11.57
2019-03-26T08:03:21.290Z,10.93
2019-03-26T08:05:49.829Z,10.83
2019-03-26T08:08:18.087Z,14.83
2019-03-26T08:10:46.403Z,10.30
2019-03-26T08:13:14.658Z,14.13
2019-03-26T08:15:42.932Z,14.37
2019-03-26T08:18:11.455Z,13.70
2019-03-26T08:20:39.881Z,12.53
2019-03-26T08:23:08.101Z,11.60
2019-03-26T08:25:36.439Z,10.97
2019-03-26T08:28:05.258Z,10.57
2019-03-26T08:30:33.920Z,11.97
2019-03-26T08:33:02.220Z,11.10
2019-03-26T08:35:30.545Z,10.77
2019-03-26T08:38:11.372Z,11.30
2019-03-26T08:40:29.629Z,10.37
2019-03-26T08:42:57.932Z,12.03
2019-03-26T08:45:26.248Z,11.00
2019-03-26T08:47:54.471Z,10.80
2019-03-26T08:50:22.729Z,12.87
2019-03-26T08:52:50.945Z,11.47
2019-03-26T08:55:19.199Z,10.37
2019-03-26T08:57:47.660Z,11.50
2019-03-26T09:00:16.146Z,9.40
2019-03-26T09:02:44.371Z,10.00
2019-03-26T09:05:12.860Z,8.67
2019-03-26T09:07:41.181Z,8.63
2019-03-26T09:10:10.273Z,9.60
2019-03-26T09:12:39.623Z,11.53
2019-03-26T09:15:14.248Z,9.97
2019-03-26T09:17:44.158Z,8.93
2019-03-26T09:20:12.379Z,9.67
2019-03-26T09:22:40.712Z,9.23
2019-03-26T09:25:09.105Z,8.97
2019-03-26T09:27:37.429Z,10.20
2019-03-26T09:30:07.208Z,10.60
2019-03-26T09:32:35.441Z,8.77
2019-03-26T09:35:04.833Z,9.33
2019-03-26T09:37:33.166Z,10.07
2019-03-26T09:40:01.388Z,10.37
2019-03-26T09:42:29.645Z,10.53
2019-03-26T09:44:57.872Z,11.93
2019-03-26T09:47:26.169Z,12.27
2019-03-26T09:49:54.541Z,11.40
2019-03-26T09:52:22.720Z,8.83
2019-03-26T09:54:50.981Z,10.23
2019-03-26T09:57:19.198Z,8.90
2019-03-26T09:59:47.445Z,9.57
2019-03-26T10:02:15.670Z,11.27
2019-03-26T10:04:43.926Z,12.03
2019-03-26T10:07:21.322Z,9.87
2019-03-26T10:09:42.129Z,12.97
2019-03-26T10:12:10.417Z,11.60
2019-03-26T10:14:38.641Z,11.83
2019-03-26T10:17:06.885Z,14.43
2019-03-26T10:19:35.108Z,9.87
2019-03-26T10:22:03.435Z,11.40
2019-03-26T10:24:31.659Z,9.50
2019-03-26T10:26:59.908Z,9.27
2019-03-26T10:29:30.562Z,8.83
2019-03-26T10:31:58.096Z,11.13
2019-03-26T10:34:26.387Z,10.20
2019-03-26T10:36:54.685Z,12.60
2019-03-26T10:39:22.938Z,14.50
2019-03-26T10:41:51.163Z,12.73
2019-03-26T10:44:19.416Z,11.37
2019-03-26T10:46:47.640Z,10.50
2019-03-26T10:49:15.896Z,12.13
2019-03-26T10:51:44.118Z,14.40
2019-03-26T10:54:12.372Z,11.07
2019-03-26T10:56:40.597Z,15.93
2019-03-26T10:59:08.857Z,13.07
2019-03-26T11:01:37.147Z,14.47
2019-03-26T11:04:07.711Z,13.97
2019-03-26T11:06:35.336Z,13.87
2019-03-26T11:09:18.275Z,15.63
2019-03-26T11:11:34.767Z,14.73
2019-03-26T11:14:02.988Z,15.73
2019-03-26T11:16:31.317Z,14.30
2019-03-26T11:18:59.528Z,12.17
2019-03-26T11:21:27.756Z,17.57
2019-03-26T11:23:56.008Z,14.93
2019-03-26T11:26:24.242Z,19.60
2019-03-26T11:28:52.488Z,17.00
2019-03-26T11:31:20.703Z,15.27
2019-03-26T11:33:48.963Z,17.20
2019-03-26T11:36:17.261Z,15.90
2019-03-26T11:38:45.592Z,15.50
2019-03-26T11:41:13.889Z,14.43
2019-03-26T11:43:42.220Z,15.03
2019-03-26T11:46:10.510Z,14.17
2019-03-26T11:48:38.767Z,16.43
2019-03-26T11:51:06.979Z,13.13
2019-03-26T11:53:35.213Z,16.67
2019-03-26T11:56:03.477Z,13.77
2019-03-26T11:58:31.777Z,14.00
2019-03-26T12:01:00.100Z,13.20
2019-03-26T12:03:29.217Z,12.87
2019-03-26T12:05:57.575Z,15.63
2019-03-26T12:08:25.861Z,10.90
2019-03-26T12:10:54.671Z,13.10
2019-03-26T12:13:23.073Z,12.83
2019-03-26T12:15:51.512Z,17.93
2019-03-26T12:18:20.051Z,14.47
2019-03-26T12:20:48.354Z,14.70
2019-03-26T12:23:16.649Z,12.80
2019-03-26T12:25:44.953Z,14.60
2019-03-26T12:28:13.203Z,17.47
2019-03-26T12:30:41.517Z,16.73
2019-03-26T12:33:09.917Z,15.47
2019-03-26T12:35:38.184Z,13.47
2019-03-26T12:38:07.977Z,12.87
2019-03-26T12:40:36.440Z,13.93
2019-03-26T12:43:04.786Z,11.10
2019-03-26T12:45:33.112Z,11.73
2019-03-26T12:48:01.540Z,16.03
2019-03-26T12:50:32.211Z,12.67
2019-03-26T12:52:59.693Z,13.00
2019-03-26T12:55:27.953Z,12.63
2019-03-26T12:57:56.254Z,16.80
2019-03-26T13:00:26.289Z,16.10
2019-03-26T13:02:54.448Z,12.93
2019-03-26T13:05:23.386Z,18.10
2019-03-26T13:07:51.572Z,14.83
2019-03-26T13:10:19.982Z,15.33
2019-03-26T13:12:48.193Z,18.37
2019-03-26T13:15:16.640Z,15.20
2019-03-26T13:17:44.942Z,13.23
2019-03-26T13:20:32.540Z,13.23
2019-03-26T13:23:00.838Z,12.97
2019-03-26T13:25:29.137Z,15.30
2019-03-26T13:27:57.456Z,11.87
2019-03-26T13:30:25.780Z,18.50
2019-03-26T13:32:54.034Z,12.93
2019-03-26T13:35:22.435Z,17.80
2019-03-26T13:37:50.834Z,13.03
2019-03-26T13:40:27.255Z,17.53
2019-03-26T13:42:49.176Z,14.73
2019-03-26T13:45:17.601Z,15.67
2019-03-26T13:47:46.483Z,17.33
2019-03-26T13:50:14.708Z,49.47
2019-03-26T13:52:43.206Z,21.33
2019-03-26T13:55:11.537Z,14.40
2019-03-26T13:57:39.804Z,18.93
2019-03-26T14:00:08.768Z,17.60
2019-03-26T14:02:38.090Z,14.97
2019-03-26T14:05:08.319Z,19.43
2019-03-26T14:07:38.781Z,14.13
2019-03-26T14:10:07.089Z,16.07
2019-03-26T14:12:35.609Z,18.33
2019-03-26T14:15:05.205Z,24.27
2019-03-26T14:17:33.401Z,17.57
2019-03-26T14:20:01.730Z,14.87
2019-03-26T14:22:29.975Z,13.33
2019-03-26T14:24:58.269Z,14.27
2019-03-26T14:27:26.497Z,15.70
2019-03-26T14:29:54.718Z,13.73
2019-03-26T14:32:23.055Z,12.23
2019-03-26T14:34:51.857Z,15.23
2019-03-26T14:37:20.413Z,12.83
2019-03-26T14:39:48.633Z,13.90
2019-03-26T14:42:16.898Z,13.87
2019-03-26T14:44:45.198Z,12.87
2019-03-26T14:47:13.457Z,15.23
2019-03-26T14:49:41.684Z,16.27
2019-03-26T14:52:09.937Z,17.17
2019-03-26T14:54:38.248Z,17.97
2019-03-26T14:57:06.549Z,51.80
2019-03-26T14:59:34.814Z,14.50
2019-03-26T15:02:03.116Z,14.20
2019-03-26T15:04:31.385Z,14.10
2019-03-26T15:06:59.605Z,17.13
2019-03-26T15:09:27.932Z,16.73
2019-03-26T15:11:56.175Z,16.47
2019-03-26T15:14:24.503Z,14.43
2019-03-26T15:16:52.727Z,22.57
2019-03-26T15:19:20.986Z,15.37
2019-03-26T15:21:49.291Z,14.20
2019-03-26T15:24:17.545Z,14.37
2019-03-26T15:26:45.777Z,28.73
2019-03-26T15:29:14.125Z,25.23
2019-03-26T15:31:42.449Z,27.03
2019-03-26T15:34:10.742Z,24.27
2019-03-26T15:36:38.966Z,24.90
2019-03-26T15:39:07.986Z,18.27
2019-03-26T15:41:36.344Z,12.83
2019-03-26T15:44:04.689Z,14.70
2019-03-26T15:46:36.220Z,24.00
2019-03-26T15:49:02.817Z,25.03
2019-03-26T15:51:31.068Z,17.93
2019-03-26T15:53:59.334Z,25.30
2019-03-26T15:56:27.583Z,20.43
2019-03-26T15:58:55.816Z,17.97
2019-03-26T16:01:24.583Z,15.70
2019-03-26T16:03:52.896Z,14.13
2019-03-26T16:06:21.238Z,14.80
2019-03-26T16:08:49.478Z,15.80
2019-03-26T16:11:17.799Z,22.07
2019-03-26T16:13:46.032Z,21.60
2019-03-26T16:16:14.297Z,16.53
2019-03-26T16:18:42.613Z,19.53
2019-03-26T16:21:10.870Z,19.53
2019-03-26T16:23:39.094Z,16.50
2019-03-26T16:26:07.357Z,14.07
2019-03-26T16:28:35.581Z,16.07
2019-03-26T16:31:03.908Z,21.43
2019-03-26T16:33:32.239Z,16.17
2019-03-26T16:36:00.540Z,20.23
2019-03-26T16:38:28.798Z,16.63
2019-03-26T16:41:00.316Z,16.53
2019-03-26T16:43:26.930Z,18.60
2019-03-26T16:45:55.230Z,14.50
2019-03-26T16:48:23.552Z,16.10
2019-03-26T16:50:51.993Z,15.23
2019-03-26T16:53:20.459Z,16.07
2019-03-26T16:55:48.761Z,15.97
2019-03-26T16:58:17.205Z,16.90
2019-03-26T17:00:46.124Z,21.37
2019-03-26T17:03:14.467Z,25.57
2019-03-26T17:05:42.798Z,26.80
2019-03-26T17:08:11.448Z,29.93
2019-03-26T17:10:48.569Z,27.13
2019-03-26T17:13:21.195Z,27.00
2019-03-26T17:15:53.915Z,34.40
2019-03-26T17:18:22.304Z,25.73
2019-03-26T17:20:51.207Z,29.53
2019-03-26T17:23:20.545Z,24.93
2019-03-26T17:25:48.795Z,22.67
2019-03-26T17:28:17.534Z,30.70
2019-03-26T17:30:46.219Z,28.97
2019-03-26T17:33:14.795Z,32.50
2019-03-26T17:35:43.024Z,35.43
2019-03-26T17:38:11.289Z,32.13
2019-03-26T17:40:42.307Z,37.47
2019-03-26T17:43:10.585Z,35.00
2019-03-26T17:45:38.885Z,27.77
2019-03-26T17:48:07.403Z,30.97
2019-03-26T17:50:35.716Z,32.27
2019-03-26T17:53:04.095Z,35.50
2019-03-26T17:55:32.317Z,31.07
2019-03-26T17:58:00.653Z,31.87
2019-03-26T18:00:36.331Z,30.17
2019-03-26T18:03:05.192Z,29.07
2019-03-26T18:05:33.798Z,30.33
2019-03-26T18:08:02.099Z,33.00
2019-03-26T18:10:30.401Z,30.03
2019-03-26T18:12:58.738Z,32.03
2019-03-26T18:15:27.034Z,27.60
2019-03-26T18:17:55.267Z,30.53
2019-03-26T18:20:32.438Z,25.20
2019-03-26T18:22:53.918Z,27.63
2019-03-26T18:25:22.244Z,23.87
2019-03-26T18:27:50.585Z,20.00
2019-03-26T18:30:18.878Z,24.73
2019-03-26T18:32:47.209Z,25.20
2019-03-26T18:35:15.442Z,24.87
2019-03-26T18:37:44.006Z,21.40
2019-03-26T18:40:12.441Z,24.20
2019-03-26T18:42:44.236Z,20.77
2019-03-26T18:45:10.719Z,24.37
2019-03-26T18:47:42.079Z,24.80
2019-03-26T18:50:10.403Z,23.57
2019-03-26T18:52:38.646Z,26.53
2019-03-26T18:55:07.091Z,29.73
2019-03-26T18:57:36.112Z,28.77
2019-03-26T19:00:07.892Z,28.23
2019-03-26T19:02:36.216Z,29.00
2019-03-26T19:05:06.650Z,24.93
2019-03-26T19:07:35.625Z,25.93
2019-03-26T19:10:05.420Z,26.90
2019-03-26T19:12:34.064Z,30.17
2019-03-26T19:15:03.366Z,28.43
2019-03-26T19:17:31.595Z,32.87
2019-03-26T19:20:03.208Z,26.50
2019-03-26T19:22:31.964Z,29.20
2019-03-26T19:25:00.390Z,24.93
2019-03-26T19:27:28.780Z,23.30
2019-03-26T19:29:57.043Z,27.40
2019-03-26T19:32:25.293Z,24.50
2019-03-26T19:34:53.728Z,28.03
2019-03-26T19:37:21.951Z,27.10
2019-03-26T19:39:50.357Z,28.87
2019-03-26T19:42:18.617Z,27.50
2019-03-26T19:44:47.160Z,25.13
2019-03-26T19:47:15.545Z,32.07
2019-03-26T19:49:43.934Z,25.80
2019-03-26T19:52:12.246Z,26.80
2019-03-26T19:54:40.557Z,27.60
2019-03-26T19:57:08.938Z,33.73
2019-03-26T19:59:37.347Z,20.20
2019-03-26T20:02:05.897Z,27.33
2019-03-26T20:04:34.291Z,24.33
2019-03-26T20:07:02.675Z,20.97
2019-03-26T20:09:31.990Z,22.07
2019-03-26T20:12:00.299Z,25.80
2019-03-26T20:14:28.529Z,26.67
2019-03-26T20:16:56.875Z,24.73
2019-03-26T20:19:25.191Z,24.23
2019-03-26T20:21:53.420Z,20.60
2019-03-26T20:24:21.739Z,20.07
2019-03-26T20:26:49.965Z,21.23
2019-03-26T20:29:18.647Z,24.37
2019-03-26T20:31:46.869Z,24.43
2019-03-26T20:34:15.128Z,20.23
2019-03-26T20:36:43.415Z,21.97
2019-03-26T20:39:11.920Z,21.70
2019-03-26T20:41:40.113Z,25.33
2019-03-26T20:44:08.677Z,21.37
2019-03-26T20:46:37.062Z,18.67
2019-03-26T20:49:05.420Z,22.07
2019-03-26T20:51:34.647Z,21.87
2019-03-26T20:54:02.913Z,19.93
2019-03-26T20:56:31.528Z,21.17
2019-03-26T20:59:00.120Z,21.27
2019-03-26T21:01:28.763Z,22.43
2019-03-26T21:03:57.015Z,24.20
2019-03-26T21:06:25.684Z,22.73
2019-03-26T21:08:54.578Z,22.57
2019-03-26T21:11:22.836Z,20.07
2019-03-26T21:13:51.287Z,22.37
2019-03-26T21:16:21.047Z,24.23
2019-03-26T21:18:49.396Z,26.70
2019-03-26T21:21:17.787Z,23.80
2019-03-26T21:23:46.110Z,19.83
2019-03-26T21:26:14.446Z,28.03
2019-03-26T21:28:42.762Z,24.10
2019-03-26T21:31:11.025Z,24.90
2019-03-26T21:33:39.265Z,26.00
2019-03-26T21:36:07.515Z,25.10
2019-03-26T21:38:35.851Z,28.13
2019-03-26T21:41:04.248Z,26.13
2019-03-26T21:43:33.094Z,28.30
2019-03-26T21:46:01.327Z,28.13
2019-03-26T21:48:29.655Z,26.73
2019-03-26T21:50:58.086Z,25.83
2019-03-26T21:53:26.503Z,27.33
2019-03-26T21:56:05.655Z,31.47
2019-03-26T21:58:25.023Z,24.23
2019-03-26T22:00:53.384Z,22.20
2019-03-26T22:03:21.605Z,26.27
2019-03-26T22:05:50.021Z,27.50
2019-03-26T22:08:18.415Z,25.90
2019-03-26T22:10:47.413Z,25.83
2019-03-26T22:13:16.283Z,25.27
2019-03-26T22:15:44.709Z,30.63
2019-03-26T22:18:13.402Z,29.13
2019-03-26T22:20:42.369Z,25.57
2019-03-26T22:23:10.896Z,25.83
2019-03-26T22:25:39.286Z,26.43
2019-03-26T22:28:07.667Z,27.30
2019-03-26T22:30:36.007Z,32.37
2019-03-26T22:33:04.680Z,27.93
2019-03-26T22:35:33.072Z,29.57
2019-03-26T22:38:01.337Z,26.37
2019-03-26T22:40:29.736Z,33.07
2019-03-26T22:42:58.006Z,26.63
2019-03-26T22:45:26.401Z,30.50
2019-03-26T22:47:54.648Z,28.23
2019-03-26T22:50:22.877Z,29.50
2019-03-26T22:52:51.687Z,27.93
2019-03-26T22:55:19.964Z,32.03
2019-03-26T22:57:49.203Z,25.63
2019-03-26T23:00:18.298Z,28.83
2019-03-26T23:02:46.600Z,29.37
2019-03-26T23:05:15.438Z,29.53
2019-03-26T23:07:43.744Z,29.93
2019-03-26T23:10:13.073Z,31.90
2019-03-26T23:12:42.076Z,25.90
2019-03-26T23:15:14.695Z,28.60
2019-03-26T23:17:42.930Z,31.80
2019-03-26T23:20:11.227Z,26.90
2019-03-26T23:22:39.578Z,31.93
2019-03-26T23:25:07.876Z,25.77
2019-03-26T23:27:36.148Z,29.63
2019-03-26T23:30:07.721Z,27.73
2019-03-26T23:32:36.065Z,27.87
2019-03-26T23:35:05.233Z,34.03
2019-03-26T23:37:33.459Z,37.37
2019-03-26T23:40:01.721Z,28.70
2019-03-26T23:42:29.948Z,29.20
2019-03-26T23:44:58.845Z,33.43
2019-03-26T23:47:27.523Z,35.50
2019-03-26T23:49:55.792Z,32.30
2019-03-26T23:52:24.024Z,32.90
2019-03-26T23:54:56.018Z,29.83
2019-03-26T23:57:24.248Z,32.47
2019-03-26T23:59:52.509Z,31.90
